Time;durP1;ratioP1;P1;durP2;ratioP2;P2;SDS_P1;SDS_P2;PMS_P1;PMS_P2;Temp;Humidity;BMP_temperature;BMP_pressure;BME280_temperature;BME280_humidity;BME280_pressure;Samples;Min_cycle;Max_cycle;Signal;HPM_P1;HPM_P2
2023/07/05 00:01:40;;;;;;;28.27;19.50;;;19.00;99.90;;;;;;5076089;28;20176;-69
2023/07/05 00:04:09;;;;;;;24.53;17.73;;;19.30;99.90;;;;;;5076073;28;20712;-69
2023/07/05 00:06:37;;;;;;;26.73;18.07;;;19.50;99.90;;;;;;5074782;28;20511;-69
2023/07/05 00:09:04;;;;;;;24.13;17.30;;;19.40;99.90;;;;;;5076076;28;20182;-69
2023/07/05 00:11:32;;;;;;;24.60;17.37;;;19.90;99.90;;;;;;5075971;28;20183;-69
2023/07/05 00:13:59;;;;;;;19.30;15.00;;;20.20;99.90;;;;;;5075653;28;20178;-69
2023/07/05 00:16:27;;;;;;;14.53;11.23;;;20.20;99.90;;;;;;5075863;28;20234;-69
2023/07/05 00:18:56;;;;;;;13.07;9.30;;;20.10;99.90;;;;;;5075212;28;20208;-69
2023/07/05 00:21:24;;;;;;;16.90;9.83;;;20.30;99.90;;;;;;5076293;28;20697;-67
2023/07/05 00:23:51;;;;;;;14.73;10.17;;;20.70;99.90;;;;;;5075676;28;20236;-68
2023/07/05 00:27:13;;;;;;;10.23;8.17;;;20.60;99.90;;;;;;5075375;28;20184;-69
2023/07/05 00:29:40;;;;;;;14.97;8.03;;;21.10;99.90;;;;;;5075613;28;20685;-68
2023/07/05 00:32:08;;;;;;;10.33;7.27;;;21.20;99.90;;;;;;5075684;28;20628;-68
2023/07/05 00:34:35;;;;;;;12.30;8.87;;;21.60;99.90;;;;;;5075384;28;20195;-69
2023/07/05 00:37:03;;;;;;;10.90;8.40;;;21.60;99.90;;;;;;5074191;28;20188;-70
2023/07/05 00:39:30;;;;;;;13.93;7.90;;;21.40;99.90;;;;;;5075287;28;20220;-69
2023/07/05 00:41:58;;;;;;;10.83;7.70;;;22.00;99.90;;;;;;5075759;28;20175;-68
2023/07/05 00:44:27;;;;;;;9.77;7.67;;;22.20;99.90;;;;;;5075378;28;20626;-69
2023/07/05 00:47:11;;;;;;;11.00;8.13;;;22.50;99.90;;;;;;5074354;28;20253;-69
2023/07/05 00:49:39;;;;;;;12.23;8.90;;;22.70;99.90;;;;;;5075343;28;20172;-69
2023/07/05 00:52:13;;;;;;;12.33;8.67;;;22.60;99.90;;;;;;5075258;28;20237;-69
2023/07/05 00:54:49;;;;;;;12.63;8.40;;;22.60;99.90;;;;;;5075315;28;20621;-69
2023/07/05 00:57:21;;;;;;;12.07;9.30;;;22.70;99.90;;;;;;5075246;28;20172;-69
2023/07/05 01:00:18;;;;;;;15.60;9.33;;;22.70;99.90;;;;;;5074923;28;20215;-68
2023/07/05 01:02:51;;;;;;;11.07;8.37;;;23.10;99.90;;;;;;5071422;28;20188;-68
2023/07/05 01:05:18;;;;;;;10.87;8.40;;;23.60;99.90;;;;;;5075090;28;20206;-69
2023/07/05 01:07:47;;;;;;;13.87;7.67;;;23.50;99.90;;;;;;5074984;28;20633;-69
2023/07/05 01:10:20;;;;;;;8.03;6.33;;;23.40;99.90;;;;;;5073495;28;20607;-68
2023/07/05 01:13:06;;;;;;;10.67;6.33;;;23.70;99.90;;;;;;5075317;28;20176;-68
2023/07/05 01:15:47;;;;;;;8.10;6.77;;;24.00;99.90;;;;;;5074589;28;20168;-69
2023/07/05 01:21:49;;;;;;;14.73;6.90;;;24.20;99.90;;;;;;5073128;28;20934;-68
2023/07/05 01:24:35;;;;;;;9.00;6.60;;;23.80;99.90;;;;;;5074685;28;20167;-69
2023/07/05 01:27:36;;;;;;;8.80;6.40;;;23.90;99.90;;;;;;5075110;28;20250;-70
2023/07/05 01:30:21;;;;;;;9.10;6.63;;;24.40;99.90;;;;;;5070390;28;20660;-70
2023/07/05 01:33:13;;;;;;;11.53;7.30;;;24.30;99.90;;;;;;5074495;28;20512;-70
2023/07/05 01:35:49;;;;;;;12.27;9.10;;;24.10;99.90;;;;;;5074280;28;20545;-70
2023/07/05 01:38:17;;;;;;;10.30;7.90;;;23.90;99.90;;;;;;5074326;28;20168;-70
2023/07/05 01:40:57;;;;;;;17.50;7.23;;;24.00;99.90;;;;;;5074014;28;20257;-69
2023/07/05 01:43:27;;;;;;;11.97;7.57;;;24.20;99.90;;;;;;5074082;28;20218;-68
2023/07/05 01:46:27;;;;;;;14.83;8.17;;;24.40;99.90;;;;;;5074147;28;20172;-68
2023/07/05 01:49:01;;;;;;;9.60;6.07;;;24.60;99.90;;;;;;5059730;28;20642;-68
2023/07/05 01:51:40;;;;;;;6.03;5.40;;;25.10;99.90;;;;;;5073958;28;20664;-68
2023/07/05 01:54:39;;;;;;;9.07;4.40;;;24.90;99.90;;;;;;5074035;28;20175;-68
2023/07/05 01:57:17;;;;;;;9.50;4.97;;;25.20;99.90;;;;;;5068927;28;20272;-69
2023/07/05 02:00:11;;;;;;;12.27;3.97;;;25.20;99.90;;;;;;5073722;28;20290;-67
2023/07/05 02:02:45;;;;;;;9.13;3.50;;;25.30;99.90;;;;;;5065331;28;20184;-68
2023/07/05 02:05:13;;;;;;;4.03;2.97;;;25.10;99.90;;;;;;5073806;28;20536;-68
2023/07/05 02:07:43;;;;;;;5.73;2.20;;;24.80;99.90;;;;;;5073713;28;20172;-69
2023/07/05 02:10:11;;;;;;;4.67;2.70;;;24.90;99.90;;;;;;5073645;28;20175;-68
2023/07/05 02:12:39;;;;;;;2.37;2.00;;;24.50;99.90;;;;;;5073494;28;20164;-67
2023/07/05 02:15:07;;;;;;;2.67;1.97;;;24.80;99.90;;;;;;5073464;28;20659;-69
2023/07/05 02:17:34;;;;;;;1.80;1.67;;;24.90;99.90;;;;;;5073619;28;20171;-68
2023/07/05 02:20:02;;;;;;;4.53;2.10;;;25.30;99.90;;;;;;5073329;28;20212;-69
2023/07/05 02:22:29;;;;;;;3.10;2.00;;;25.40;99.90;;;;;;5073104;28;20222;-69
2023/07/05 02:24:57;;;;;;;5.30;2.10;;;25.40;99.90;;;;;;5073297;28;20568;-68
2023/07/05 02:27:26;;;;;;;2.63;1.87;;;25.30;99.90;;;;;;5073245;28;20251;-69
2023/07/05 02:29:54;;;;;;;2.23;1.47;;;25.50;99.90;;;;;;5073677;28;20510;-69
2023/07/05 02:32:22;;;;;;;3.23;1.40;;;25.50;99.90;;;;;;5073230;28;20187;-69
2023/07/05 02:34:49;;;;;;;3.03;1.60;;;25.80;99.90;;;;;;5073257;28;20638;-68
2023/07/05 02:37:17;;;;;;;2.13;1.57;;;25.60;99.90;;;;;;5073349;28;20218;-68
2023/07/05 02:39:44;;;;;;;1.97;1.70;;;25.60;99.90;;;;;;5073178;28;20208;-68
2023/07/05 02:42:11;;;;;;;2.17;1.80;;;25.70;99.90;;;;;;5073118;28;20202;-69
2023/07/05 02:44:39;;;;;;;2.10;1.70;;;26.00;99.90;;;;;;5073167;28;20230;-68
2023/07/05 02:47:06;;;;;;;2.20;1.60;;;26.30;99.90;;;;;;5071995;28;20270;-69
2023/07/05 02:49:34;;;;;;;2.60;1.70;;;26.10;99.90;;;;;;5073515;28;20176;-70
2023/07/05 02:52:01;;;;;;;3.90;2.10;;;26.20;99.90;;;;;;5073032;28;20322;-69
2023/07/05 02:54:28;;;;;;;3.93;1.93;;;26.00;99.90;;;;;;5073118;28;20225;-69
2023/07/05 02:56:56;;;;;;;4.03;2.87;;;25.60;99.90;;;;;;5073144;28;20171;-70
2023/07/05 02:59:23;;;;;;;2.23;1.67;;;25.50;99.90;;;;;;5073068;28;20207;-69
2023/07/05 03:01:51;;;;;;;2.77;1.47;;;25.90;99.90;;;;;;5072975;28;20694;-71
2023/07/05 03:04:18;;;;;;;1.63;1.37;;;26.10;99.90;;;;;;5073190;28;20184;-69
2023/07/05 03:06:46;;;;;;;1.27;1.00;;;26.40;99.90;;;;;;5073070;28;20172;-69
2023/07/05 03:09:13;;;;;;;1.87;1.33;;;26.40;99.90;;;;;;5072937;28;20317;-69
2023/07/05 03:11:40;;;;;;;0.90;0.70;;;26.40;99.90;;;;;;5073037;28;20164;-69
2023/07/05 03:14:08;;;;;;;1.77;0.73;;;26.40;99.90;;;;;;5076607;28;20261;-70
2023/07/05 03:16:35;;;;;;;1.00;0.70;;;26.10;99.90;;;;;;5077339;28;20171;-69
2023/07/05 03:19:03;;;;;;;0.43;0.40;;;25.30;99.90;;;;;;5076740;28;20199;-70
2023/07/05 03:21:30;;;;;;;1.10;0.87;;;24.20;99.90;;;;;;5076539;28;20288;-69
2023/07/05 03:23:57;;;;;;;1.67;0.93;;;23.60;99.90;;;;;;5076821;28;20645;-70
2023/07/05 03:26:25;;;;;;;0.93;0.73;;;23.70;99.90;;;;;;5076893;28;20537;-69
2023/07/05 03:28:52;;;;;;;1.00;0.70;;;24.00;99.90;;;;;;5076745;28;20202;-69
2023/07/05 03:31:20;;;;;;;2.03;1.03;;;24.90;99.90;;;;;;5076694;28;20172;-69
2023/07/05 03:33:48;;;;;;;1.10;0.60;;;25.40;99.90;;;;;;5076569;28;20172;-69
2023/07/05 03:36:18;;;;;;;0.40;0.40;;;25.90;99.90;;;;;;5076627;28;20172;-68
2023/07/05 03:38:46;;;;;;;0.77;0.40;;;25.70;99.90;;;;;;5076365;28;20566;-68
2023/07/05 03:41:22;;;;;;;0.70;0.40;;;25.70;99.90;;;;;;5076509;28;20234;-68
2023/07/05 03:44:00;;;;;;;0.77;0.40;;;25.80;99.90;;;;;;5076270;28;20171;-69
2023/07/05 03:46:28;;;;;;;0.63;0.40;;;25.10;99.90;;;;;;5076321;28;20184;-68
2023/07/05 03:48:55;;;;;;;0.50;0.50;;;24.10;99.90;;;;;;5076312;28;20171;-69
2023/07/05 03:51:25;;;;;;;0.40;0.40;;;23.50;99.90;;;;;;5076321;28;20267;-69
2023/07/05 03:53:58;;;;;;;0.27;0.27;;;23.30;99.90;;;;;;5076360;28;20176;-69
2023/07/05 03:56:27;;;;;;;0.73;0.50;;;23.00;99.90;;;;;;5076465;28;20203;-68
2023/07/05 03:58:55;;;;;;;0.43;0.40;;;22.60;99.90;;;;;;5075966;28;20310;-70
2023/07/05 04:01:25;;;;;;;1.17;0.50;;;22.30;99.90;;;;;;5076105;28;20182;-68
2023/07/05 04:03:55;;;;;;;0.70;0.70;;;22.00;99.90;;;;;;5076113;28;20711;-69
2023/07/05 04:06:24;;;;;;;1.13;0.70;;;21.80;99.90;;;;;;5076111;28;20637;-70
2023/07/05 04:08:52;;;;;;;1.20;0.70;;;21.80;99.90;;;;;;5075896;28;20221;-69
2023/07/05 04:11:20;;;;;;;4.27;0.90;;;21.80;99.90;;;;;;5075883;28;20179;-69
2023/07/05 04:13:48;;;;;;;2.47;0.87;;;21.80;99.90;;;;;;5075964;28;20175;-69
2023/07/05 04:16:19;;;;;;;1.57;0.87;;;22.10;99.90;;;;;;5075896;28;20211;-69
2023/07/05 04:18:49;;;;;;;0.63;0.63;;;23.00;99.90;;;;;;5075804;28;20216;-70
2023/07/05 04:21:17;;;;;;;2.83;0.90;;;23.60;99.90;;;;;;5075562;28;20172;-69
2023/07/05 04:23:45;;;;;;;0.97;0.50;;;24.10;99.90;;;;;;5075168;28;20184;-69
2023/07/05 04:26:18;;;;;;;2.20;0.70;;;24.30;99.90;;;;;;5075731;28;20225;-69
2023/07/05 04:28:46;;;;;;;0.90;0.63;;;24.30;99.90;;;;;;5075765;28;20183;-69
2023/07/05 04:31:17;;;;;;;0.50;0.50;;;24.40;99.90;;;;;;5075670;28;20172;-69
2023/07/05 04:33:45;;;;;;;0.40;0.40;;;24.60;99.90;;;;;;5075445;28;20188;-69
2023/07/05 04:36:13;;;;;;;2.43;0.73;;;24.40;99.90;;;;;;5075528;28;20528;-69
2023/07/05 04:38:40;;;;;;;1.13;0.60;;;24.00;99.90;;;;;;5075419;28;20744;-69
2023/07/05 04:41:09;;;;;;;0.90;0.50;;;23.50;99.90;;;;;;5075428;28;20312;-69
2023/07/05 04:43:36;;;;;;;2.53;0.77;;;22.80;99.90;;;;;;5074167;28;20180;-70
2023/07/05 04:46:03;;;;;;;0.70;0.70;;;22.30;99.90;;;;;;5075292;28;20187;-69
2023/07/05 04:48:31;;;;;;;1.53;0.80;;;21.90;99.90;;;;;;5075447;28;20225;-69
2023/07/05 04:50:58;;;;;;;1.53;1.00;;;21.70;99.90;;;;;;5075178;28;20187;-69
2023/07/05 04:53:28;;;;;;;1.77;0.97;;;21.70;99.90;;;;;;5075591;28;20651;-69
2023/07/05 04:55:59;;;;;;;2.10;1.00;;;22.30;99.90;;;;;;5075029;28;20214;-69
2023/07/05 04:58:26;;;;;;;1.53;1.00;;;22.40;99.90;;;;;;5075310;28;20267;-69
2023/07/05 05:01:02;;;;;;;1.10;0.87;;;23.00;99.90;;;;;;5074827;28;20176;-70
2023/07/05 05:03:30;;;;;;;2.33;0.80;;;23.30;99.90;;;;;;5074958;28;20167;-70
2023/07/05 05:05:57;;;;;;;2.40;0.90;;;23.60;99.90;;;;;;5074787;28;20223;-70
2023/07/05 05:08:25;;;;;;;4.30;0.90;;;23.60;99.90;;;;;;5075117;28;20176;-69
2023/07/05 05:10:54;;;;;;;0.97;0.90;;;23.70;99.90;;;;;;5074807;28;20531;-69
2023/07/05 05:13:22;;;;;;;1.60;0.77;;;23.70;99.90;;;;;;5074840;28;20176;-69
2023/07/05 05:15:50;;;;;;;4.90;0.90;;;23.80;99.90;;;;;;5074849;28;20187;-70
2023/07/05 05:18:18;;;;;;;3.87;0.83;;;23.40;99.90;;;;;;5074883;28;20176;-69
2023/07/05 05:20:46;;;;;;;2.10;0.67;;;22.80;99.90;;;;;;5074577;28;20214;-69
2023/07/05 05:23:14;;;;;;;1.97;0.57;;;22.30;99.90;;;;;;5074483;28;20314;-69
2023/07/05 05:25:43;;;;;;;1.23;0.50;;;21.70;99.90;;;;;;5074625;28;20175;-69
2023/07/05 05:28:11;;;;;;;1.27;0.60;;;21.50;99.90;;;;;;5074661;28;20168;-69
2023/07/05 05:30:39;;;;;;;1.73;0.50;;;21.30;99.90;;;;;;5074322;28;20241;-69
2023/07/05 05:33:06;;;;;;;1.80;0.60;;;21.10;99.90;;;;;;5074466;28;20191;-69
2023/07/05 05:35:35;;;;;;;1.37;0.63;;;21.00;99.90;;;;;;5073624;28;20176;-69
2023/07/05 05:38:03;;;;;;;0.63;0.57;;;21.00;99.90;;;;;;5074387;28;20179;-68
2023/07/05 05:40:33;;;;;;;2.00;1.30;;;21.00;99.90;;;;;;5073998;28;20203;-69
2023/07/05 05:43:00;;;;;;;2.90;1.10;;;20.90;99.90;;;;;;5074361;28;20180;-69
2023/07/05 05:45:28;;;;;;;0.50;0.50;;;20.80;99.90;;;;;;5074302;28;20185;-69
2023/07/05 05:47:56;;;;;;;0.40;0.40;;;20.80;99.90;;;;;;5074163;28;20664;-69
2023/07/05 05:50:24;;;;;;;1.30;0.40;;;20.80;99.90;;;;;;5073994;28;20212;-69
2023/07/05 05:52:52;;;;;;;0.40;0.40;;;20.80;99.90;;;;;;5073843;28;20206;-69
2023/07/05 05:55:22;;;;;;;1.23;0.50;;;20.70;99.90;;;;;;5074040;28;20182;-69
2023/07/05 05:57:49;;;;;;;0.40;0.40;;;20.70;99.90;;;;;;5073903;28;20265;-69
2023/07/05 06:00:17;;;;;;;0.97;0.40;;;20.70;99.90;;;;;;5073823;28;20676;-69
2023/07/05 06:02:44;;;;;;;0.30;0.30;;;20.60;99.90;;;;;;5073586;28;20176;-69
2023/07/05 06:05:12;;;;;;;0.77;0.50;;;20.50;99.90;;;;;;5073844;28;20182;-69
2023/07/05 06:07:40;;;;;;;0.50;0.50;;;20.40;99.90;;;;;;5073884;28;20266;-69
2023/07/05 06:10:08;;;;;;;0.60;0.50;;;20.40;99.90;;;;;;5073632;28;20189;-68
2023/07/05 06:12:40;;;;;;;0.50;0.50;;;20.30;99.90;;;;;;5073603;28;20180;-68
2023/07/05 06:15:09;;;;;;;3.20;0.60;;;20.30;99.90;;;;;;5073881;28;20623;-69
2023/07/05 06:17:37;;;;;;;0.60;0.60;;;20.30;99.90;;;;;;5073682;28;20176;-69
2023/07/05 06:20:07;;;;;;;0.87;0.40;;;20.20;99.90;;;;;;5073513;28;20254;-68
2023/07/05 06:22:36;;;;;;;0.63;0.50;;;20.20;99.90;;;;;;5074331;28;20248;-66
2023/07/05 06:25:06;;;;;;;2.10;0.47;;;20.10;99.90;;;;;;5076235;28;20209;-67
2023/07/05 06:27:34;;;;;;;1.33;0.43;;;20.00;99.90;;;;;;5074531;28;20179;-68
2023/07/05 06:30:02;;;;;;;0.73;0.40;;;20.00;99.90;;;;;;5073297;28;20727;-68
2023/07/05 06:32:32;;;;;;;1.07;0.90;;;19.90;99.90;;;;;;5076029;28;20178;-67
2023/07/05 06:35:00;;;;;;;0.57;0.57;;;19.90;99.90;;;;;;5075049;28;20252;-69
2023/07/05 06:37:27;;;;;;;1.40;1.00;;;19.90;99.90;;;;;;5074190;28;20172;-67
2023/07/05 06:39:55;;;;;;;0.60;0.60;;;19.70;99.90;;;;;;5073869;28;20208;-68
2023/07/05 06:42:23;;;;;;;1.63;0.90;;;19.70;99.90;;;;;;5075752;28;20172;-68
2023/07/05 06:44:51;;;;;;;1.57;0.80;;;19.60;99.90;;;;;;5076539;28;20186;-69
2023/07/05 06:47:18;;;;;;;0.40;0.40;;;19.50;99.90;;;;;;5073095;28;20572;-69
2023/07/05 06:49:46;;;;;;;0.97;0.63;;;19.50;99.90;;;;;;5073124;28;20187;-69
2023/07/05 06:52:14;;;;;;;1.93;0.57;;;19.40;99.90;;;;;;5073121;28;20174;-69
2023/07/05 06:54:42;;;;;;;1.13;0.77;;;19.30;99.90;;;;;;5073104;28;20176;-70
2023/07/05 06:57:09;;;;;;;0.60;0.60;;;19.10;99.90;;;;;;5073381;28;20195;-69
2023/07/05 06:59:37;;;;;;;1.43;1.23;;;19.00;99.90;;;;;;5072958;28;20209;-68
2023/07/05 07:02:05;;;;;;;1.33;1.03;;;18.80;99.90;;;;;;5072875;28;20172;-69
2023/07/05 07:04:33;;;;;;;0.70;0.70;;;18.70;99.90;;;;;;5072923;28;20226;-69
2023/07/05 07:07:01;;;;;;;1.33;1.00;;;18.40;99.90;;;;;;5072779;28;20172;-69
2023/07/05 07:09:29;;;;;;;1.53;1.43;;;18.40;99.90;;;;;;5072794;28;20542;-69
2023/07/05 07:11:57;;;;;;;2.70;1.60;;;18.20;99.90;;;;;;5072999;28;20179;-69
2023/07/05 07:14:25;;;;;;;2.10;1.40;;;18.10;99.90;;;;;;5071570;28;20176;-69
2023/07/05 07:16:53;;;;;;;0.83;0.83;;;18.00;99.90;;;;;;5073043;28;20172;-70
2023/07/05 07:19:21;;;;;;;3.77;0.70;;;17.80;99.90;;;;;;5072609;28;20211;-69
2023/07/05 07:21:49;;;;;;;0.80;0.60;;;17.70;99.90;;;;;;5072548;28;20217;-71
2023/07/05 07:24:17;;;;;;;0.93;0.73;;;17.60;99.90;;;;;;5072782;28;20657;-68
2023/07/05 07:26:45;;;;;;;1.73;0.70;;;17.50;99.90;;;;;;5072797;28;20217;-68
2023/07/05 07:29:13;;;;;;;1.80;0.80;;;17.40;99.90;;;;;;5073253;28;20187;-68
2023/07/05 07:31:41;;;;;;;1.80;0.83;;;17.20;99.90;;;;;;5072863;28;20211;-68
2023/07/05 07:34:09;;;;;;;2.00;0.77;;;17.10;99.90;;;;;;5072761;28;20187;-68
2023/07/05 07:36:37;;;;;;;3.40;1.17;;;17.00;99.90;;;;;;5072688;28;20645;-68
2023/07/05 07:39:05;;;;;;;2.17;1.20;;;17.00;99.90;;;;;;5072704;28;20211;-68
2023/07/05 07:41:36;;;;;;;1.10;0.73;;;16.90;99.90;;;;;;5072421;28;20183;-67
2023/07/05 07:44:09;;;;;;;2.13;1.00;;;16.90;99.90;;;;;;5072711;28;20192;-67
2023/07/05 07:46:38;;;;;;;1.43;1.00;;;17.00;99.90;;;;;;5072573;28;20171;-68
2023/07/05 07:49:09;;;;;;;3.70;1.33;;;17.00;99.90;;;;;;5072499;28;20184;-68
2023/07/05 07:51:39;;;;;;;1.93;1.00;;;17.00;99.90;;;;;;5072785;28;20187;-68
2023/07/05 07:54:08;;;;;;;2.77;1.10;;;17.00;99.90;;;;;;5072536;28;20691;-68
2023/07/05 07:56:36;;;;;;;1.93;0.87;;;17.00;99.90;;;;;;5072249;28;20180;-68
2023/07/05 07:59:06;;;;;;;2.03;1.10;;;17.00;99.90;;;;;;5073973;28;20224;-68
2023/07/05 08:01:37;;;;;;;1.70;1.00;;;17.10;99.90;;;;;;5074840;28;20578;-68
2023/07/05 08:04:07;;;;;;;2.10;1.20;;;17.10;99.90;;;;;;5075067;28;20203;-68
2023/07/05 08:06:43;;;;;;;1.10;1.00;;;17.10;99.90;;;;;;5076321;28;20566;-68
2023/07/05 08:09:17;;;;;;;1.70;1.10;;;17.10;99.90;;;;;;5076070;28;20310;-68
2023/07/05 08:11:44;;;;;;;3.27;1.47;;;17.10;99.90;;;;;;5076441;28;20179;-68
2023/07/05 08:14:17;;;;;;;4.43;1.63;;;17.20;99.90;;;;;;5076145;28;20578;-68
2023/07/05 08:16:46;;;;;;;2.33;1.40;;;17.20;99.90;;;;;;5074755;28;20187;-67
2023/07/05 08:19:15;;;;;;;5.17;1.63;;;17.20;99.90;;;;;;5075746;28;20213;-70
2023/07/05 08:21:46;;;;;;;2.73;1.60;;;17.20;99.90;;;;;;5075583;28;20219;-70
2023/07/05 08:24:15;;;;;;;3.90;1.50;;;17.20;99.90;;;;;;5075968;28;20168;-69
2023/07/05 08:26:44;;;;;;;3.07;1.33;;;17.20;99.90;;;;;;5075938;28;20237;-70
2023/07/05 08:29:12;;;;;;;4.97;1.60;;;17.10;99.90;;;;;;5075825;28;20179;-70
2023/07/05 08:31:41;;;;;;;1.97;1.50;;;17.00;99.90;;;;;;5075736;28;20177;-70
2023/07/05 08:34:10;;;;;;;2.63;1.70;;;16.90;99.90;;;;;;5075685;28;20165;-69
2023/07/05 08:36:40;;;;;;;2.00;1.77;;;16.80;99.90;;;;;;5075793;28;20183;-69
2023/07/05 08:39:09;;;;;;;2.87;1.87;;;16.60;99.90;;;;;;5075594;28;20207;-69
2023/07/05 08:41:46;;;;;;;2.53;1.60;;;16.60;99.90;;;;;;5075440;28;20168;-70
2023/07/05 08:44:31;;;;;;;3.17;1.70;;;16.50;99.90;;;;;;5075818;28;20217;-68
2023/07/05 08:47:08;;;;;;;1.90;1.50;;;16.40;99.90;;;;;;5075733;28;20187;-70
2023/07/05 08:49:41;;;;;;;2.93;1.63;;;16.30;99.90;;;;;;5076176;28;20179;-70
2023/07/05 08:52:19;;;;;;;5.03;1.50;;;16.30;99.90;;;;;;5074006;28;20186;-70
2023/07/05 08:54:49;;;;;;;4.33;2.10;;;16.20;99.90;;;;;;5075861;28;20652;-71
2023/07/05 08:57:28;;;;;;;3.33;1.70;;;16.20;99.90;;;;;;5075347;28;20229;-70
2023/07/05 08:59:59;;;;;;;5.63;2.30;;;16.10;99.90;;;;;;5075212;28;20758;-69
2023/07/05 09:02:28;;;;;;;5.63;2.27;;;16.10;99.90;;;;;;5075429;28;20176;-69
2023/07/05 09:04:58;;;;;;;4.30;2.30;;;16.10;99.90;;;;;;5075194;28;20186;-70
2023/07/05 09:08:02;;;;;;;3.07;2.40;;;16.00;99.90;;;;;;5075115;28;20233;-69
2023/07/05 09:10:46;;;;;;;5.37;2.37;;;15.90;99.90;;;;;;5064357;28;20192;-70
2023/07/05 09:13:23;;;;;;;4.07;2.40;;;15.90;99.90;;;;;;5073902;28;20186;-71
2023/07/05 09:16:00;;;;;;;4.33;2.27;;;15.70;99.90;;;;;;5075108;28;20675;-68
2023/07/05 09:18:51;;;;;;;3.87;2.73;;;15.70;99.90;;;;;;5073660;28;20225;-70
2023/07/05 09:21:35;;;;;;;4.27;2.43;;;15.60;99.90;;;;;;5075181;28;20626;-70
2023/07/05 09:24:25;;;;;;;4.77;2.90;;;15.50;99.90;;;;;;5074843;28;20622;-69
2023/07/05 09:27:22;;;;;;;7.50;3.13;;;15.50;99.90;;;;;;5074691;28;20303;-69
2023/07/05 09:30:02;;;;;;;4.83;2.97;;;15.40;99.90;;;;;;5074660;28;20652;-70
2023/07/05 09:32:39;;;;;;;4.33;2.63;;;15.30;99.90;;;;;;5074948;28;20324;-70
2023/07/05 09:35:35;;;;;;;6.43;3.27;;;15.30;99.90;;;;;;5074642;28;20214;-70
2023/07/05 09:38:18;;;;;;;6.43;3.53;;;15.20;99.90;;;;;;5071177;28;20188;-68
2023/07/05 09:40:50;;;;;;;3.23;2.20;;;15.20;99.90;;;;;;5074343;28;20215;-71
2023/07/05 09:43:38;;;;;;;7.23;3.30;;;15.10;99.90;;;;;;5074336;28;20175;-70
2023/07/05 09:46:19;;;;;;;2.63;2.07;;;15.10;99.90;;;;;;5074444;28;20176;-69
2023/07/05 09:48:49;;;;;;;4.37;2.70;;;15.00;99.90;;;;;;5074160;28;20183;-69
2023/07/05 09:51:17;;;;;;;3.20;2.20;;;14.90;99.90;;;;;;5073681;28;20192;-70
2023/07/05 09:54:01;;;;;;;5.43;2.17;;;14.90;99.90;;;;;;5074118;28;20195;-68
2023/07/05 09:56:29;;;;;;;2.97;2.00;;;14.90;99.90;;;;;;5074093;28;20221;-69
2023/07/05 09:59:16;;;;;;;5.80;1.70;;;14.80;99.90;;;;;;5073875;28;20726;-70
2023/07/05 10:01:48;;;;;;;2.67;2.10;;;14.80;99.90;;;;;;5073897;28;20175;-68
2023/07/05 10:04:18;;;;;;;3.07;1.90;;;14.70;99.90;;;;;;5073908;28;20266;-69
2023/07/05 10:06:50;;;;;;;3.33;1.60;;;14.60;99.90;;;;;;5073994;28;20180;-70
2023/07/05 10:09:23;;;;;;;2.80;1.80;;;14.50;99.90;;;;;;5072645;28;20521;-69
2023/07/05 10:11:59;;;;;;;3.93;1.87;;;14.40;99.90;;;;;;5073936;28;20564;-69
2023/07/05 10:14:32;;;;;;;3.30;1.77;;;14.40;99.90;;;;;;5074016;28;20187;-69
2023/07/05 10:17:11;;;;;;;2.33;1.53;;;14.30;99.90;;;;;;5074042;28;20179;-69
2023/07/05 10:19:55;;;;;;;3.27;2.20;;;14.20;99.90;;;;;;5073450;28;20203;-69
2023/07/05 10:22:57;;;;;;;4.27;1.87;;;14.20;99.90;;;;;;5073012;28;20338;-70
2023/07/05 10:25:25;;;;;;;2.07;1.70;;;14.00;99.90;;;;;;5073597;28;20187;-69
2023/07/05 10:27:52;;;;;;;3.40;1.70;;;14.00;99.90;;;;;;5073717;28;20534;-69
2023/07/05 10:30:22;;;;;;;3.30;2.13;;;13.90;99.90;;;;;;5073419;28;20179;-69
2023/07/05 10:33:09;;;;;;;3.43;1.60;;;13.70;99.90;;;;;;5073477;28;20262;-69
2023/07/05 10:35:47;;;;;;;4.53;2.20;;;13.60;99.90;;;;;;5073543;28;20177;-69
2023/07/05 10:38:41;;;;;;;2.27;1.60;;;13.50;99.90;;;;;;5073769;28;20171;-70
2023/07/05 10:41:26;;;;;;;2.97;1.80;;;13.50;99.90;;;;;;5070105;28;20226;-69
2023/07/05 10:44:02;;;;;;;2.17;1.97;;;13.40;99.90;;;;;;5073954;28;20171;-69
2023/07/05 10:46:31;;;;;;;3.87;2.00;;;13.40;99.90;;;;;;5073674;28;20227;-68
2023/07/05 10:48:59;;;;;;;3.23;2.40;;;13.30;99.90;;;;;;5073317;28;20645;-69
2023/07/05 10:51:31;;;;;;;3.87;2.30;;;13.30;99.90;;;;;;5073177;28;20236;-69
2023/07/05 10:54:16;;;;;;;4.83;2.53;;;13.30;99.90;;;;;;5073320;28;20176;-69
2023/07/05 10:56:46;;;;;;;7.50;2.10;;;13.20;99.90;;;;;;5073338;28;20178;-69
2023/07/05 10:59:26;;;;;;;3.87;2.27;;;13.20;99.90;;;;;;5072922;28;20207;-70
2023/07/05 11:02:19;;;;;;;9.53;3.00;;;13.10;99.90;;;;;;5073384;28;20552;-71
2023/07/05 11:04:50;;;;;;;3.47;2.30;;;13.00;99.90;;;;;;5072214;28;20680;-70
2023/07/05 11:07:20;;;;;;;5.57;3.23;;;12.90;99.90;;;;;;5073238;28;20182;-70
2023/07/05 11:09:48;;;;;;;6.17;2.97;;;12.80;99.90;;;;;;5073180;28;20692;-70
2023/07/05 11:12:25;;;;;;;4.83;3.40;;;12.70;99.90;;;;;;5072936;28;20191;-70
2023/07/05 11:14:54;;;;;;;3.43;3.00;;;12.70;99.90;;;;;;5073369;28;20628;-71
2023/07/05 11:17:34;;;;;;;4.83;3.10;;;12.70;99.90;;;;;;5072998;28;20270;-70
2023/07/05 11:20:02;;;;;;;6.60;3.20;;;12.60;99.90;;;;;;5072634;28;20209;-68
2023/07/05 11:22:39;;;;;;;6.50;3.57;;;12.50;99.90;;;;;;5072635;28;20247;-69
2023/07/05 11:25:11;;;;;;;8.00;3.80;;;12.50;99.90;;;;;;5073240;28;20179;-70
2023/07/05 11:27:38;;;;;;;7.53;3.73;;;12.40;99.90;;;;;;5072829;28;20182;-70
2023/07/05 11:30:26;;;;;;;8.17;4.20;;;12.30;99.90;;;;;;5072761;28;20184;-69
2023/07/05 11:33:05;;;;;;;8.67;4.47;;;12.30;99.90;;;;;;5072705;28;20184;-69
2023/07/05 11:35:55;;;;;;;7.30;5.13;;;12.20;99.90;;;;;;5076836;28;20206;-69
2023/07/05 11:38:40;;;;;;;5.87;4.67;;;12.20;99.90;;;;;;5076882;28;20229;-69
2023/07/05 11:41:09;;;;;;;9.53;4.53;;;12.20;99.90;;;;;;5076435;28;20548;-69
2023/07/05 11:43:42;;;;;;;8.93;5.13;;;12.10;99.90;;;;;;5076693;28;20177;-70
2023/07/05 11:46:36;;;;;;;7.27;4.63;;;12.10;99.90;;;;;;5076614;28;20645;-69
2023/07/05 11:49:22;;;;;;;9.50;5.83;;;12.00;99.90;;;;;;5076295;28;20175;-71
2023/07/05 11:52:12;;;;;;;8.57;5.57;;;11.90;99.90;;;;;;5075274;28;20539;-70
2023/07/05 11:54:50;;;;;;;10.73;5.90;;;12.00;99.90;;;;;;5076580;28;20181;-71
2023/07/05 11:57:17;;;;;;;7.57;4.77;;;12.00;99.90;;;;;;5076613;28;20539;-71
2023/07/05 11:59:57;;;;;;;7.37;5.07;;;12.00;99.90;;;;;;5074912;28;20582;-70
2023/07/05 12:02:30;;;;;;;10.17;5.70;;;11.90;99.90;;;;;;5076262;28;20489;-71
2023/07/05 12:05:01;;;;;;;8.87;5.33;;;11.80;99.90;;;;;;5076225;28;20179;-70
2023/07/05 12:07:30;;;;;;;10.23;5.27;;;11.80;99.90;;;;;;5076174;28;20691;-70
2023/07/05 12:09:58;;;;;;;7.47;4.97;;;11.80;99.90;;;;;;5076135;28;20550;-71
2023/07/05 12:12:26;;;;;;;7.07;5.20;;;11.70;99.90;;;;;;5076111;28;20194;-71
2023/07/05 12:14:53;;;;;;;8.50;5.17;;;11.70;99.90;;;;;;5076067;28;20581;-70
2023/07/05 12:17:26;;;;;;;11.30;5.73;;;11.60;99.90;;;;;;5076040;28;20178;-69
2023/07/05 12:19:56;;;;;;;11.67;5.00;;;11.60;99.90;;;;;;5076021;28;20347;-70
2023/07/05 12:22:25;;;;;;;7.40;4.90;;;11.60;99.90;;;;;;5075672;28;20314;-70
2023/07/05 12:24:57;;;;;;;8.97;5.33;;;11.50;99.90;;;;;;5076012;28;20183;-70
2023/07/05 12:27:31;;;;;;;10.03;5.60;;;11.40;99.90;;;;;;5074523;28;20213;-71
2023/07/05 12:30:03;;;;;;;5.47;4.53;;;11.40;99.90;;;;;;5076367;28;20174;-70
2023/07/05 12:32:31;;;;;;;11.07;5.27;;;11.30;99.90;;;;;;5074793;28;20182;-69
2023/07/05 12:35:17;;;;;;;8.73;5.10;;;11.30;99.90;;;;;;5075570;28;20177;-71
2023/07/05 12:37:45;;;;;;;7.33;5.13;;;11.20;99.90;;;;;;5075748;28;20635;-68
2023/07/05 12:40:36;;;;;;;12.20;5.30;;;11.20;99.90;;;;;;5075526;28;20710;-70
2023/07/05 12:43:05;;;;;;;10.80;5.40;;;11.10;99.90;;;;;;5075733;28;20552;-71
2023/07/05 12:45:38;;;;;;;8.87;5.27;;;11.10;99.90;;;;;;5075389;28;20639;-70
2023/07/05 12:48:29;;;;;;;11.00;5.50;;;11.10;99.90;;;;;;5075425;28;20226;-70
2023/07/05 12:51:19;;;;;;;11.00;5.27;;;11.00;99.90;;;;;;5075432;28;20178;-68
2023/07/05 12:53:59;;;;;;;7.67;5.43;;;11.00;99.90;;;;;;5076058;28;20682;-69
2023/07/05 12:56:40;;;;;;;6.93;4.67;;;11.00;99.90;;;;;;5075600;28;20183;-70
2023/07/05 12:59:18;;;;;;;7.20;5.03;;;10.90;99.90;;;;;;5075363;28;20214;-71
2023/07/05 13:01:47;;;;;;;7.13;4.60;;;10.80;99.90;;;;;;5075219;28;20173;-68
2023/07/05 13:04:18;;;;;;;6.60;4.77;;;10.80;99.90;;;;;;5075233;28;20671;-69
2023/07/05 13:06:49;;;;;;;7.37;5.10;;;10.70;99.90;;;;;;5075126;28;20256;-69
2023/07/05 13:09:31;;;;;;;6.10;4.60;;;10.70;99.90;;;;;;5075309;28;20208;-68
2023/07/05 13:12:04;;;;;;;10.60;5.93;;;10.70;99.90;;;;;;5075024;28;20177;-70
2023/07/05 13:14:34;;;;;;;7.83;5.50;;;10.70;99.90;;;;;;5075299;28;20169;-70
2023/07/05 13:17:18;;;;;;;8.93;5.13;;;10.70;99.90;;;;;;5073588;28;20259;-68